createdAt,value
2019-05-07T00:01:27.323Z,98433.20
2019-05-07T00:04:02.323Z,98429.79
2019-05-07T00:06:36.211Z,98435.23
2019-05-07T00:09:12.265Z,98429.91
2019-05-07T00:11:45.740Z,98427.08
2019-05-07T00:14:17.682Z,98426.62
2019-05-07T00:16:53.310Z,98424.67
2019-05-07T00:19:24.823Z,98426.58
2019-05-07T00:21:56.796Z,98426.97
2019-05-07T00:24:28.743Z,98421.13
2019-05-07T00:27:03.024Z,98426.97
2019-05-07T00:29:35.047Z,98420.94
2019-05-07T00:32:08.786Z,98421.44
2019-05-07T00:34:47.740Z,98421.59
2019-05-07T00:37:28.958Z,98415.00
2019-05-07T00:40:18.714Z,98421.59
2019-05-07T00:43:06.688Z,98408.97
2019-05-07T00:45:52.862Z,98412.42
2019-05-07T00:48:25.067Z,98407.23
2019-05-07T00:51:16.669Z,98403.93
2019-05-07T00:53:48.632Z,98397.33
2019-05-07T00:56:22.329Z,98405.88
2019-05-07T00:58:54.514Z,98407.36
2019-05-07T01:01:26.575Z,98404.83
2019-05-07T01:03:58.529Z,98402.84
2019-05-07T01:06:30.472Z,98394.00
2019-05-07T01:09:04.383Z,98396.24
2019-05-07T01:11:36.317Z,98401.16
2019-05-07T01:14:08.275Z,98400.13
2019-05-07T01:16:42.080Z,98396.92
2019-05-07T01:19:14.084Z,98392.19
2019-05-07T01:21:46.055Z,98393.02
2019-05-07T01:24:18.015Z,98389.28
2019-05-07T01:26:49.976Z,98386.05
2019-05-07T01:29:22.693Z,98381.19
2019-05-07T01:32:00.506Z,98381.97
2019-05-07T01:34:42.921Z,98385.97
2019-05-07T01:37:14.966Z,98384.42
2019-05-07T01:39:46.913Z,98380.86
2019-05-07T01:42:18.839Z,98386.08
2019-05-07T01:44:52.869Z,98382.63
2019-05-07T01:47:24.641Z,98380.91
2019-05-07T01:49:56.610Z,98371.91
2019-05-07T01:52:28.558Z,98383.66
2019-05-07T01:55:02.996Z,98380.66
2019-05-07T01:57:34.388Z,98379.44
2019-05-07T02:00:06.756Z,98385.89
2019-05-07T02:02:45.665Z,98382.43
2019-05-07T02:05:32.800Z,98383.25
2019-05-07T02:08:07.329Z,98387.54
2019-05-07T02:10:57.021Z,98383.03
2019-05-07T02:13:28.967Z,98382.20
2019-05-07T02:16:03.725Z,98387.86
2019-05-07T02:18:34.758Z,98380.98
2019-05-07T02:21:06.719Z,98380.54
2019-05-07T02:23:38.652Z,98380.89
2019-05-07T02:26:13.132Z,98378.36
2019-05-07T02:28:44.473Z,98383.95
2019-05-07T02:31:16.454Z,98382.97
2019-05-07T02:33:48.404Z,98382.25
2019-05-07T02:36:23.402Z,98376.44
2019-05-07T02:39:12.868Z,98380.54
2019-05-07T02:41:44.596Z,98376.16
2019-05-07T02:44:16.500Z,98373.12
2019-05-07T02:47:04.001Z,98371.73
2019-05-07T02:49:55.881Z,98373.48
2019-05-07T02:52:59.629Z,98375.72
2019-05-07T02:55:52.807Z,98367.12
2019-05-07T02:58:24.981Z,98374.09
2019-05-07T03:00:56.954Z,98356.23
2019-05-07T03:03:28.990Z,98356.90
2019-05-07T03:06:03.018Z,98364.42
2019-05-07T03:08:34.799Z,98368.03
2019-05-07T03:11:06.778Z,98365.38
2019-05-07T03:13:38.734Z,98360.93
2019-05-07T03:16:13.126Z,98365.44
2019-05-07T03:18:45.041Z,98362.56
2019-05-07T03:21:17.260Z,98368.85
2019-05-07T03:23:58.784Z,98371.68
2019-05-07T03:26:34.914Z,98369.06
2019-05-07T03:29:17.131Z,98364.11
2019-05-07T03:32:26.655Z,98370.56
2019-05-07T03:35:06.040Z,98368.80
2019-05-07T03:37:36.452Z,98371.92
2019-05-07T03:40:08.600Z,98368.13
2019-05-07T03:42:43.741Z,98361.83
2019-05-07T03:45:25.455Z,98369.81
2019-05-07T03:48:07.933Z,98368.72
2019-05-07T03:50:42.856Z,98370.43
2019-05-07T03:53:14.399Z,98370.36
2019-05-07T03:55:46.495Z,98371.33
2019-05-07T03:58:18.550Z,98372.42
2019-05-07T04:00:53.416Z,98373.27
2019-05-07T04:03:24.960Z,98368.93
2019-05-07T04:05:57.058Z,98381.04
2019-05-07T04:08:29.042Z,98368.84
2019-05-07T04:11:03.520Z,98374.35
2019-05-07T04:13:34.845Z,98379.27
2019-05-07T04:16:06.833Z,98379.91
2019-05-07T04:18:38.800Z,98383.64
2019-05-07T04:21:13.628Z,98382.00
2019-05-07T04:23:44.619Z,98389.35
2019-05-07T04:26:42.970Z,98390.06
2019-05-07T04:29:16.084Z,98388.80
2019-05-07T04:31:48.038Z,98394.22
2019-05-07T04:34:39.584Z,98389.63
2019-05-07T04:37:13.151Z,98390.52
2019-05-07T04:39:53.843Z,98391.27
2019-05-07T04:42:25.451Z,98395.77
2019-05-07T04:44:57.808Z,98398.80
2019-05-07T04:47:38.653Z,98400.17
2019-05-07T04:50:04.691Z,98398.02
2019-05-07T04:52:37.281Z,98397.23
2019-05-07T04:55:09.460Z,98404.00
2019-05-07T04:57:43.750Z,98397.72
2019-05-07T05:00:15.412Z,98398.56
2019-05-07T05:02:54.013Z,98397.05
2019-05-07T05:05:26.087Z,98389.92
2019-05-07T05:07:58.069Z,98395.80
2019-05-07T05:10:30.068Z,98387.23
2019-05-07T05:13:03.186Z,98387.03
2019-05-07T05:15:35.406Z,98386.25
2019-05-07T05:18:07.347Z,98389.78
2019-05-07T05:20:45.589Z,98388.44
2019-05-07T05:23:36.749Z,98387.69
2019-05-07T05:26:08.709Z,98384.66
2019-05-07T05:28:41.890Z,98385.92
2019-05-07T05:31:14.143Z,98387.52
2019-05-07T05:33:46.095Z,98381.41
2019-05-07T05:36:18.042Z,98382.56
2019-05-07T05:38:49.978Z,98390.19
2019-05-07T05:41:23.010Z,98394.67
2019-05-07T05:44:05.178Z,98391.73
2019-05-07T05:46:37.151Z,98394.53
2019-05-07T05:49:09.072Z,98399.45
2019-05-07T05:51:52.387Z,98392.06
2019-05-07T05:54:32.576Z,98398.50
2019-05-07T05:57:23.186Z,98399.50
2019-05-07T06:00:14.807Z,98396.41
2019-05-07T06:03:05.250Z,98388.99
2019-05-07T06:05:55.916Z,98392.29
2019-05-07T06:08:51.932Z,98390.26
2019-05-07T06:11:42.989Z,98392.34
2019-05-07T06:14:36.857Z,98389.80
2019-05-07T06:17:18.717Z,98383.52
2019-05-07T06:20:12.186Z,98381.73
2019-05-07T06:22:57.531Z,98381.25
2019-05-07T06:25:33.222Z,98382.47
2019-05-07T06:28:03.422Z,98373.13
2019-05-07T06:30:35.373Z,98371.98
2019-05-07T06:33:07.387Z,98362.70
2019-05-07T06:35:39.362Z,98356.42
2019-05-07T06:38:12.590Z,98360.06
2019-05-07T06:40:57.446Z,98359.55
2019-05-07T06:43:43.183Z,98349.00
2019-05-07T06:46:15.149Z,98349.00
2019-05-07T06:48:47.113Z,98357.48
2019-05-07T06:51:19.078Z,98354.59
2019-05-07T06:53:51.830Z,98352.13
2019-05-07T06:56:24.017Z,98348.39
2019-05-07T06:59:15.612Z,98344.75
2019-05-07T07:02:07.230Z,98346.31
2019-05-07T07:04:55.709Z,98350.21
2019-05-07T07:07:42.790Z,98346.97
2019-05-07T07:10:34.392Z,98347.77
2019-05-07T07:13:06.365Z,98350.04
2019-05-07T07:15:38.352Z,98342.52
2019-05-07T07:18:12.236Z,98340.97
2019-05-07T07:20:44.180Z,98333.01
2019-05-07T07:23:16.159Z,98330.04
2019-05-07T07:25:48.117Z,98329.73
2019-05-07T07:28:21.958Z,98326.97
2019-05-07T07:31:26.229Z,98325.70
2019-05-07T07:34:02.064Z,98328.28
2019-05-07T07:36:42.231Z,98324.08
2019-05-07T07:39:13.777Z,98322.28
2019-05-07T07:41:52.332Z,98320.65
2019-05-07T07:44:24.276Z,98310.63
2019-05-07T07:46:56.222Z,98310.14
2019-05-07T07:49:28.213Z,98312.95
2019-05-07T07:52:02.982Z,98314.19
2019-05-07T07:54:34.338Z,98307.65
2019-05-07T07:57:24.762Z,98309.21
2019-05-07T08:00:11.800Z,98302.88
2019-05-07T08:02:46.965Z,98302.55
2019-05-07T08:05:18.936Z,98301.20
2019-05-07T08:07:52.954Z,98304.92
2019-05-07T08:10:24.844Z,98299.64
2019-05-07T08:12:56.797Z,98294.63
2019-05-07T08:15:28.869Z,98296.74
2019-05-07T08:18:02.769Z,98292.33
2019-05-07T08:20:34.709Z,98287.75
2019-05-07T08:23:06.669Z,98287.56
2019-05-07T08:25:47.689Z,98286.53
2019-05-07T08:28:22.883Z,98284.23
2019-05-07T08:31:12.581Z,98284.23
2019-05-07T08:34:03.325Z,98273.66
2019-05-07T08:36:35.303Z,98269.00
2019-05-07T08:39:07.478Z,98263.09
2019-05-07T08:41:39.521Z,98265.27
2019-05-07T08:44:16.346Z,98265.41
2019-05-07T08:46:59.429Z,98257.52
2019-05-07T08:49:37.034Z,98260.24
2019-05-07T08:52:05.278Z,98251.42
2019-05-07T08:54:37.241Z,98249.95
2019-05-07T08:57:09.243Z,98248.73
2019-05-07T08:59:43.698Z,98253.07
2019-05-07T09:02:15.096Z,98246.27
2019-05-07T09:04:47.056Z,98247.69
2019-05-07T09:07:19.018Z,98247.53
2019-05-07T09:09:52.285Z,98244.91
2019-05-07T09:12:24.560Z,98248.19
2019-05-07T09:14:56.512Z,98239.65
2019-05-07T09:17:28.581Z,98232.48
2019-05-07T09:20:02.579Z,98228.24
2019-05-07T09:22:34.606Z,98235.72
2019-05-07T09:25:06.567Z,98229.69
2019-05-07T09:27:43.649Z,98225.25
2019-05-07T09:30:34.067Z,98226.16
2019-05-07T09:33:17.963Z,98232.48
2019-05-07T09:35:52.823Z,98226.67
2019-05-07T09:38:25.064Z,98216.85
2019-05-07T09:40:57.261Z,98218.68
2019-05-07T09:43:29.201Z,98213.27
2019-05-07T09:46:02.665Z,98208.24
2019-05-07T09:48:34.864Z,98205.88
2019-05-07T09:51:06.846Z,98210.28
2019-05-07T09:53:38.817Z,98206.48
2019-05-07T09:56:12.351Z,98209.44
2019-05-07T09:58:44.565Z,98209.27
2019-05-07T10:01:16.550Z,98210.73
2019-05-07T10:03:48.542Z,98207.94
2019-05-07T10:06:20.516Z,98205.61
2019-05-07T10:08:52.508Z,98200.80
2019-05-07T10:11:34.367Z,98196.19
2019-05-07T10:14:09.128Z,98188.74
2019-05-07T10:16:52.300Z,98185.55
2019-05-07T10:19:24.350Z,98186.00
2019-05-07T10:21:56.294Z,98175.70
2019-05-07T10:24:28.377Z,98180.39
2019-05-07T10:27:02.243Z,98184.12
2019-05-07T10:29:34.435Z,98172.11
2019-05-07T10:32:06.358Z,98177.61
2019-05-07T10:34:38.354Z,98163.27
2019-05-07T10:37:12.077Z,98168.95
2019-05-07T10:39:44.344Z,98165.56
2019-05-07T10:42:16.279Z,98163.22
2019-05-07T10:44:56.719Z,98162.09
2019-05-07T10:47:37.300Z,98159.85
2019-05-07T10:50:15.707Z,98156.98
2019-05-07T10:52:47.670Z,98153.80
2019-05-07T10:55:19.671Z,98151.50
2019-05-07T10:57:52.888Z,98152.97
2019-05-07T11:00:26.314Z,98153.66
2019-05-07T11:02:58.352Z,98149.30
2019-05-07T11:05:32.411Z,98148.56
2019-05-07T11:08:04.317Z,98148.69
2019-05-07T11:10:36.326Z,98147.20
2019-05-07T11:13:08.284Z,98140.99
2019-05-07T11:15:42.937Z,98134.03
2019-05-07T11:18:21.842Z,98132.19
2019-05-07T11:20:53.863Z,98125.23
2019-05-07T11:23:25.807Z,98120.47
2019-05-07T11:25:57.802Z,98113.66
2019-05-07T11:28:31.691Z,98108.36
2019-05-07T11:31:03.827Z,98109.91
2019-05-07T11:33:35.797Z,98102.93
2019-05-07T11:36:07.798Z,98099.85
2019-05-07T11:38:41.834Z,98088.52
2019-05-07T11:41:13.664Z,98083.84
2019-05-07T11:44:01.796Z,98083.86
2019-05-07T11:46:53.442Z,98083.94
2019-05-07T11:49:32.730Z,98085.87
2019-05-07T11:52:09.307Z,98084.12
2019-05-07T11:54:42.144Z,98085.45
2019-05-07T11:57:14.236Z,98079.98
2019-05-07T11:59:46.224Z,98077.88
